Jump to content


SOUTHWEST AIRLINES FLIGHT WN2014 FLOWN ON 05-26-2017 BY CAPTAIN ADEL CABALLIN

Pilot StatsCaptain Adel Caballin (LDP11) • 707.2 total hours • 382 total flights [View Logbook]
FLIGHT DETAILS
StatusReceived and approved on 2017-05-26 at 15:05:03
Origin AirportPensacola Regl (KPNS) • Pensacola, Florida, United States (121 feet MSL)
Filed Flight PlanFLIGHT PLANNER OFFLINE
Destination AirportNashville Intl (KBNA) • Nashville, Tennessee, United States (599 feet MSL)
Alternate AirportHuntsville Intl-Jones (KHSV) • Huntsville, Alabama, United States (629 feet MSL)
AirlineSouthwest Airlines
AircraftBoeing 737-700 | Winglets (73W / B737-700)
FS Aircraft UsedBoeing 737-7H4NGX Southwest Airlines Colorado One Winglets
Cruising AltitudeFL390
Distance Flown340 nautical miles
Passengers Onboard86 passengers (63.24% full)
DEPARTURE DETAILS
Time Out07:45:29
Taxi Data114,691 lbs total with 12,791 lbs of fuel onboard
Takeoff Data07:57:29 (12 minutes after leaving gate/ramp) • 114,186 lbs total • 9° pitch at 139 knots
Departure METARKPNS 261753Z 19009G18KT 10SM CLR 28/14 A3008 RMK AO2 SLP185 T02830139 10283 20222 50009
ARRIVAL DETAILS
Landing Data09:04:18 • 108,510 lbs total • 6° pitch doing 112 knots at a rate of -91.50 feet/minute with 6,202 lbs of fuel onboard
Time In09:13:10 (9 minutes after landing)
Ramp Weight108,102 lbs total
Total Fuel Used6,589 lbs
Total Block Time01:27:44 (1.5 hours) while 21 minutes were spent on the ground
Arrival METARKBNA 261853Z 19017KT 10SM FEW050 SCT250 29/14 A2992 RMK AO2 SLP125 T02940144
MISCELLANEOUS DETAILS
LiveDISPATCH Version4.8.3.1
FS Version
FSUIPC Version4.93
OS VersionWindows 7 32-bit
Screen Resolution1920 x 1080
Pilot's CommentsRoute: VUZ ZANZA SWFFT2
FLIGHT MAP